Akin, Georgia
Current Conditions -  °F | °C
As of 2:35 PM on Thursday 30 Oct 2014 (Local Time) from KCWV Reporting Station
Scattered Clouds Scattered Clouds  
Wind Chill: 72°   Ceiling: Unl
Heat Index: 72°   Visibility: 10mi
Dew Point: 57°   Wind: 0mph
Humidity: 60%   Direction: NA
Pressure: 29.95"   Gusts: NA
Location:  32.2794°N, 81.623°W
Report Text: KCWV 301835Z AUTO 00000KT 10SM SCT026 22/14 A2995 RMK AO2
Loading
Personal Weather Stations






























Interactive Weather Map
Tropical Storm Tracking
New forecast layout! Learn more

10-Day Weather Forecast

Advertisements
Track Severe Weather on mobile